sensor_id;sensor_type;location;lat;lon;timestamp;P1;durP1;ratioP1;P2;durP2;ratioP2
79493;SDS011;68951;53.130;18.104;2023-04-25T00:00:45;6.80;;;3.60;;
79493;SDS011;68951;53.130;18.104;2023-04-25T00:03:20;6.10;;;3.10;;
79493;SDS011;68951;53.130;18.104;2023-04-25T00:05:47;5.10;;;2.50;;
79493;SDS011;68951;53.130;18.104;2023-04-25T00:08:15;5.70;;;3.30;;
79493;SDS011;68951;53.130;18.104;2023-04-25T00:10:41;6.80;;;3.30;;
79493;SDS011;68951;53.130;18.104;2023-04-25T00:13:08;5.90;;;2.70;;
79493;SDS011;68951;53.130;18.104;2023-04-25T00:15:37;7.40;;;3.60;;
79493;SDS011;68951;53.130;18.104;2023-04-25T00:18:05;7.10;;;3.30;;
79493;SDS011;68951;53.130;18.104;2023-04-25T00:20:32;6.20;;;3.30;;
79493;SDS011;68951;53.130;18.104;2023-04-25T00:22:59;6.10;;;3.60;;
79493;SDS011;68951;53.130;18.104;2023-04-25T00:25:26;6.00;;;2.60;;
79493;SDS011;68951;53.130;18.104;2023-04-25T00:27:53;5.60;;;2.50;;
79493;SDS011;68951;53.130;18.104;2023-04-25T00:30:19;3.90;;;1.20;;
79493;SDS011;68951;53.130;18.104;2023-04-25T00:32:46;6.80;;;3.20;;
79493;SDS011;68951;53.130;18.104;2023-04-25T00:35:13;5.80;;;2.60;;
79493;SDS011;68951;53.130;18.104;2023-04-25T00:37:40;6.80;;;3.40;;
79493;SDS011;68951;53.130;18.104;2023-04-25T00:40:07;7.00;;;2.80;;
79493;SDS011;68951;53.130;18.104;2023-04-25T00:42:35;5.90;;;2.30;;
79493;SDS011;68951;53.130;18.104;2023-04-25T00:45:05;5.50;;;2.80;;
79493;SDS011;68951;53.130;18.104;2023-04-25T00:47:35;5.60;;;2.90;;
79493;SDS011;68951;53.130;18.104;2023-04-25T00:50:02;6.10;;;3.10;;
79493;SDS011;68951;53.130;18.104;2023-04-25T00:52:29;6.40;;;2.50;;
79493;SDS011;68951;53.130;18.104;2023-04-25T00:54:56;5.10;;;2.30;;
79493;SDS011;68951;53.130;18.104;2023-04-25T00:57:23;5.20;;;2.30;;
79493;SDS011;68951;53.130;18.104;2023-04-25T00:59:50;3.80;;;1.60;;
79493;SDS011;68951;53.130;18.104;2023-04-25T01:02:19;4.80;;;1.80;;
79493;SDS011;68951;53.130;18.104;2023-04-25T01:04:47;5.00;;;2.10;;
79493;SDS011;68951;53.130;18.104;2023-04-25T01:07:15;4.70;;;1.90;;
79493;SDS011;68951;53.130;18.104;2023-04-25T01:09:42;5.20;;;2.10;;
79493;SDS011;68951;53.130;18.104;2023-04-25T01:12:09;5.20;;;2.60;;
79493;SDS011;68951;53.130;18.104;2023-04-25T01:14:36;5.70;;;2.20;;
79493;SDS011;68951;53.130;18.104;2023-04-25T01:17:03;6.30;;;2.50;;
79493;SDS011;68951;53.130;18.104;2023-04-25T01:19:30;7.70;;;2.10;;
79493;SDS011;68951;53.130;18.104;2023-04-25T01:21:58;3.70;;;1.00;;
79493;SDS011;68951;53.130;18.104;2023-04-25T01:24:25;4.50;;;2.00;;
79493;SDS011;68951;53.130;18.104;2023-04-25T01:26:53;4.10;;;1.60;;
79493;SDS011;68951;53.130;18.104;2023-04-25T01:29:23;5.80;;;2.50;;
79493;SDS011;68951;53.130;18.104;2023-04-25T01:31:51;5.10;;;1.90;;
79493;SDS011;68951;53.130;18.104;2023-04-25T01:34:19;4.20;;;1.60;;
79493;SDS011;68951;53.130;18.104;2023-04-25T01:36:49;5.60;;;2.30;;
79493;SDS011;68951;53.130;18.104;2023-04-25T01:39:17;4.30;;;1.30;;
79493;SDS011;68951;53.130;18.104;2023-04-25T01:41:48;5.60;;;2.40;;
79493;SDS011;68951;53.130;18.104;2023-04-25T01:44:15;4.10;;;1.80;;
79493;SDS011;68951;53.130;18.104;2023-04-25T01:46:42;4.90;;;2.20;;
79493;SDS011;68951;53.130;18.104;2023-04-25T01:49:09;3.70;;;1.20;;
79493;SDS011;68951;53.130;18.104;2023-04-25T01:51:36;5.50;;;2.60;;
79493;SDS011;68951;53.130;18.104;2023-04-25T01:54:03;4.90;;;2.30;;
79493;SDS011;68951;53.130;18.104;2023-04-25T01:56:32;6.10;;;2.20;;
79493;SDS011;68951;53.130;18.104;2023-04-25T01:58:59;4.70;;;1.70;;
79493;SDS011;68951;53.130;18.104;2023-04-25T02:01:26;4.50;;;1.70;;
79493;SDS011;68951;53.130;18.104;2023-04-25T02:03:53;5.70;;;2.60;;
79493;SDS011;68951;53.130;18.104;2023-04-25T02:06:20;5.20;;;2.60;;
79493;SDS011;68951;53.130;18.104;2023-04-25T02:08:46;5.50;;;2.90;;
79493;SDS011;68951;53.130;18.104;2023-04-25T02:11:13;5.90;;;2.20;;
79493;SDS011;68951;53.130;18.104;2023-04-25T02:13:40;5.20;;;1.80;;
79493;SDS011;68951;53.130;18.104;2023-04-25T02:16:07;5.20;;;2.40;;
79493;SDS011;68951;53.130;18.104;2023-04-25T02:18:34;4.80;;;2.10;;
79493;SDS011;68951;53.130;18.104;2023-04-25T02:21:03;3.80;;;1.30;;
79493;SDS011;68951;53.130;18.104;2023-04-25T02:23:30;5.90;;;2.40;;
79493;SDS011;68951;53.130;18.104;2023-04-25T02:25:57;5.00;;;1.80;;
79493;SDS011;68951;53.130;18.104;2023-04-25T02:28:24;3.80;;;1.70;;
79493;SDS011;68951;53.130;18.104;2023-04-25T02:30:52;3.30;;;0.90;;
79493;SDS011;68951;53.130;18.104;2023-04-25T02:33:19;4.80;;;1.80;;
79493;SDS011;68951;53.130;18.104;2023-04-25T02:35:47;3.10;;;0.70;;
79493;SDS011;68951;53.130;18.104;2023-04-25T02:38:14;3.40;;;1.20;;
79493;SDS011;68951;53.130;18.104;2023-04-25T02:40:41;4.20;;;1.80;;
79493;SDS011;68951;53.130;18.104;2023-04-25T02:43:08;4.20;;;1.50;;
79493;SDS011;68951;53.130;18.104;2023-04-25T02:45:35;4.90;;;1.60;;
79493;SDS011;68951;53.130;18.104;2023-04-25T02:48:02;3.50;;;1.20;;
79493;SDS011;68951;53.130;18.104;2023-04-25T02:50:29;4.30;;;1.50;;
79493;SDS011;68951;53.130;18.104;2023-04-25T02:52:56;4.20;;;1.10;;
79493;SDS011;68951;53.130;18.104;2023-04-25T02:55:23;3.70;;;1.20;;
79493;SDS011;68951;53.130;18.104;2023-04-25T02:57:50;6.90;;;1.30;;
79493;SDS011;68951;53.130;18.104;2023-04-25T03:00:17;3.30;;;0.80;;
79493;SDS011;68951;53.130;18.104;2023-04-25T03:02:43;3.70;;;1.10;;
79493;SDS011;68951;53.130;18.104;2023-04-25T03:05:10;3.20;;;0.80;;
79493;SDS011;68951;53.130;18.104;2023-04-25T03:07:37;4.20;;;1.10;;
79493;SDS011;68951;53.130;18.104;2023-04-25T03:10:07;4.70;;;1.20;;
79493;SDS011;68951;53.130;18.104;2023-04-25T03:12:34;3.20;;;0.90;;
79493;SDS011;68951;53.130;18.104;2023-04-25T03:15:00;3.30;;;0.90;;
79493;SDS011;68951;53.130;18.104;2023-04-25T03:17:27;3.90;;;1.00;;
79493;SDS011;68951;53.130;18.104;2023-04-25T03:19:54;3.50;;;1.20;;
79493;SDS011;68951;53.130;18.104;2023-04-25T03:22:21;3.20;;;1.00;;
79493;SDS011;68951;53.130;18.104;2023-04-25T03:24:49;3.30;;;0.90;;
79493;SDS011;68951;53.130;18.104;2023-04-25T03:27:17;2.60;;;0.60;;
79493;SDS011;68951;53.130;18.104;2023-04-25T03:29:43;4.30;;;1.20;;
79493;SDS011;68951;53.130;18.104;2023-04-25T03:32:10;4.40;;;1.20;;
79493;SDS011;68951;53.130;18.104;2023-04-25T03:34:37;4.10;;;1.20;;
79493;SDS011;68951;53.130;18.104;2023-04-25T03:37:04;3.50;;;0.70;;
79493;SDS011;68951;53.130;18.104;2023-04-25T03:39:31;3.40;;;0.80;;
79493;SDS011;68951;53.130;18.104;2023-04-25T03:41:58;2.30;;;0.50;;
79493;SDS011;68951;53.130;18.104;2023-04-25T03:44:24;3.00;;;0.50;;
79493;SDS011;68951;53.130;18.104;2023-04-25T03:46:51;3.80;;;0.80;;
79493;SDS011;68951;53.130;18.104;2023-04-25T03:49:18;2.60;;;0.30;;
79493;SDS011;68951;53.130;18.104;2023-04-25T03:51:45;5.10;;;0.90;;
79493;SDS011;68951;53.130;18.104;2023-04-25T03:54:11;3.20;;;0.70;;
79493;SDS011;68951;53.130;18.104;2023-04-25T03:56:38;2.70;;;0.60;;
79493;SDS011;68951;53.130;18.104;2023-04-25T03:59:05;3.40;;;0.90;;
79493;SDS011;68951;53.130;18.104;2023-04-25T04:01:32;3.50;;;0.70;;
79493;SDS011;68951;53.130;18.104;2023-04-25T04:03:58;2.90;;;0.70;;
79493;SDS011;68951;53.130;18.104;2023-04-25T04:06:25;2.40;;;0.40;;
79493;SDS011;68951;53.130;18.104;2023-04-25T04:08:52;1.70;;;0.30;;
79493;SDS011;68951;53.130;18.104;2023-04-25T04:11:19;3.00;;;0.40;;
79493;SDS011;68951;53.130;18.104;2023-04-25T04:13:46;2.50;;;0.40;;
79493;SDS011;68951;53.130;18.104;2023-04-25T04:16:13;3.90;;;0.80;;
79493;SDS011;68951;53.130;18.104;2023-04-25T04:18:40;2.90;;;0.30;;
79493;SDS011;68951;53.130;18.104;2023-04-25T04:21:07;2.70;;;0.50;;
79493;SDS011;68951;53.130;18.104;2023-04-25T04:23:34;3.40;;;0.70;;
79493;SDS011;68951;53.130;18.104;2023-04-25T04:26:01;3.10;;;0.80;;
79493;SDS011;68951;53.130;18.104;2023-04-25T04:28:28;2.70;;;0.50;;
79493;SDS011;68951;53.130;18.104;2023-04-25T04:30:55;3.10;;;0.50;;
79493;SDS011;68951;53.130;18.104;2023-04-25T04:33:22;2.90;;;0.60;;
79493;SDS011;68951;53.130;18.104;2023-04-25T04:35:51;4.80;;;0.60;;
79493;SDS011;68951;53.130;18.104;2023-04-25T04:38:18;2.50;;;0.40;;
79493;SDS011;68951;53.130;18.104;2023-04-25T04:40:46;2.90;;;0.50;;
79493;SDS011;68951;53.130;18.104;2023-04-25T04:43:14;3.10;;;0.90;;
79493;SDS011;68951;53.130;18.104;2023-04-25T04:45:43;2.80;;;0.40;;
79493;SDS011;68951;53.130;18.104;2023-04-25T04:48:11;2.60;;;0.50;;
79493;SDS011;68951;53.130;18.104;2023-04-25T04:50:40;3.30;;;0.60;;
79493;SDS011;68951;53.130;18.104;2023-04-25T04:53:09;2.80;;;0.60;;
79493;SDS011;68951;53.130;18.104;2023-04-25T04:55:35;2.40;;;0.40;;
79493;SDS011;68951;53.130;18.104;2023-04-25T04:58:02;3.70;;;0.60;;
79493;SDS011;68951;53.130;18.104;2023-04-25T05:00:29;3.00;;;0.50;;
79493;SDS011;68951;53.130;18.104;2023-04-25T05:02:56;2.60;;;0.70;;
79493;SDS011;68951;53.130;18.104;2023-04-25T05:05:23;3.20;;;0.80;;
79493;SDS011;68951;53.130;18.104;2023-04-25T05:07:50;3.10;;;0.40;;
79493;SDS011;68951;53.130;18.104;2023-04-25T05:10:19;4.80;;;0.70;;
79493;SDS011;68951;53.130;18.104;2023-04-25T05:12:46;4.70;;;1.20;;
79493;SDS011;68951;53.130;18.104;2023-04-25T05:15:13;3.40;;;0.70;;
79493;SDS011;68951;53.130;18.104;2023-04-25T05:17:40;2.30;;;0.40;;
79493;SDS011;68951;53.130;18.104;2023-04-25T05:20:07;4.30;;;0.90;;
79493;SDS011;68951;53.130;18.104;2023-04-25T05:22:37;3.50;;;1.00;;
79493;SDS011;68951;53.130;18.104;2023-04-25T05:25:04;3.80;;;0.90;;
79493;SDS011;68951;53.130;18.104;2023-04-25T05:27:31;3.00;;;0.70;;
79493;SDS011;68951;53.130;18.104;2023-04-25T05:29:58;4.40;;;1.20;;
79493;SDS011;68951;53.130;18.104;2023-04-25T05:32:26;3.70;;;0.80;;
79493;SDS011;68951;53.130;18.104;2023-04-25T05:34:53;4.60;;;1.20;;
79493;SDS011;68951;53.130;18.104;2023-04-25T05:37:20;4.80;;;1.40;;
79493;SDS011;68951;53.130;18.104;2023-04-25T05:39:47;4.20;;;1.20;;
79493;SDS011;68951;53.130;18.104;2023-04-25T05:42:14;3.80;;;0.80;;
79493;SDS011;68951;53.130;18.104;2023-04-25T05:44:41;3.70;;;0.80;;
79493;SDS011;68951;53.130;18.104;2023-04-25T05:47:08;3.30;;;0.80;;
79493;SDS011;68951;53.130;18.104;2023-04-25T05:49:34;5.70;;;1.10;;
79493;SDS011;68951;53.130;18.104;2023-04-25T05:52:01;4.40;;;1.50;;
79493;SDS011;68951;53.130;18.104;2023-04-25T05:54:28;6.10;;;1.60;;
79493;SDS011;68951;53.130;18.104;2023-04-25T06:10:19;5.10;;;2.20;;
79493;SDS011;68951;53.130;18.104;2023-04-25T06:12:49;4.60;;;1.30;;
79493;SDS011;68951;53.130;18.104;2023-04-25T06:15:16;4.00;;;1.10;;
79493;SDS011;68951;53.130;18.104;2023-04-25T06:17:43;4.60;;;1.30;;
79493;SDS011;68951;53.130;18.104;2023-04-25T06:20:10;5.00;;;1.50;;
79493;SDS011;68951;53.130;18.104;2023-04-25T06:22:37;4.50;;;0.50;;
79493;SDS011;68951;53.130;18.104;2023-04-25T06:25:04;5.90;;;1.30;;
79493;SDS011;68951;53.130;18.104;2023-04-25T06:27:33;3.60;;;1.00;;
79493;SDS011;68951;53.130;18.104;2023-04-25T06:30:00;7.80;;;1.70;;
79493;SDS011;68951;53.130;18.104;2023-04-25T06:32:27;6.40;;;1.70;;
79493;SDS011;68951;53.130;18.104;2023-04-25T06:34:56;5.30;;;1.20;;
79493;SDS011;68951;53.130;18.104;2023-04-25T06:37:23;3.40;;;0.60;;
79493;SDS011;68951;53.130;18.104;2023-04-25T06:39:50;6.50;;;1.50;;
79493;SDS011;68951;53.130;18.104;2023-04-25T06:42:17;4.80;;;1.90;;
79493;SDS011;68951;53.130;18.104;2023-04-25T06:44:43;4.30;;;1.20;;
79493;SDS011;68951;53.130;18.104;2023-04-25T06:47:10;3.80;;;0.90;;
79493;SDS011;68951;53.130;18.104;2023-04-25T06:49:37;4.50;;;1.60;;
79493;SDS011;68951;53.130;18.104;2023-04-25T06:52:04;4.70;;;1.60;;
79493;SDS011;68951;53.130;18.104;2023-04-25T06:54:31;4.70;;;1.30;;
79493;SDS011;68951;53.130;18.104;2023-04-25T06:56:57;5.80;;;1.70;;
79493;SDS011;68951;53.130;18.104;2023-04-25T06:59:24;4.40;;;1.40;;
79493;SDS011;68951;53.130;18.104;2023-04-25T07:01:51;4.80;;;1.50;;
79493;SDS011;68951;53.130;18.104;2023-04-25T07:04:18;4.80;;;1.30;;
79493;SDS011;68951;53.130;18.104;2023-04-25T07:06:45;4.20;;;1.20;;
79493;SDS011;68951;53.130;18.104;2023-04-25T07:09:14;4.30;;;1.30;;
79493;SDS011;68951;53.130;18.104;2023-04-25T07:11:41;5.60;;;1.30;;
79493;SDS011;68951;53.130;18.104;2023-04-25T07:14:07;3.70;;;0.50;;
79493;SDS011;68951;53.130;18.104;2023-04-25T07:16:34;4.90;;;1.80;;
79493;SDS011;68951;53.130;18.104;2023-04-25T07:19:01;4.50;;;1.70;;
79493;SDS011;68951;53.130;18.104;2023-04-25T07:21:28;5.30;;;1.50;;
79493;SDS011;68951;53.130;18.104;2023-04-25T07:23:55;4.00;;;1.00;;
79493;SDS011;68951;53.130;18.104;2023-04-25T07:26:22;3.80;;;1.00;;
79493;SDS011;68951;53.130;18.104;2023-04-25T07:28:49;3.20;;;0.70;;
79493;SDS011;68951;53.130;18.104;2023-04-25T07:31:17;4.60;;;1.40;;
79493;SDS011;68951;53.130;18.104;2023-04-25T07:33:44;6.00;;;1.50;;
79493;SDS011;68951;53.130;18.104;2023-04-25T07:36:12;6.30;;;1.60;;
79493;SDS011;68951;53.130;18.104;2023-04-25T07:38:39;5.30;;;1.30;;
79493;SDS011;68951;53.130;18.104;2023-04-25T07:41:06;3.50;;;1.00;;
79493;SDS011;68951;53.130;18.104;2023-04-25T07:43:33;4.60;;;1.50;;
79493;SDS011;68951;53.130;18.104;2023-04-25T07:46:00;3.10;;;0.90;;
79493;SDS011;68951;53.130;18.104;2023-04-25T07:48:27;4.20;;;0.70;;
79493;SDS011;68951;53.130;18.104;2023-04-25T07:50:54;4.60;;;1.20;;
79493;SDS011;68951;53.130;18.104;2023-04-25T07:53:19;4.30;;;1.40;;
79493;SDS011;68951;53.130;18.104;2023-04-25T07:55:46;7.00;;;1.30;;
79493;SDS011;68951;53.130;18.104;2023-04-25T07:58:13;4.90;;;1.20;;
79493;SDS011;68951;53.130;18.104;2023-04-25T08:00:41;3.10;;;0.60;;
79493;SDS011;68951;53.130;18.104;2023-04-25T08:03:09;3.90;;;1.00;;
79493;SDS011;68951;53.130;18.104;2023-04-25T08:05:36;4.70;;;1.30;;
79493;SDS011;68951;53.130;18.104;2023-04-25T08:08:03;3.70;;;0.90;;
79493;SDS011;68951;53.130;18.104;2023-04-25T08:10:30;4.50;;;1.20;;
79493;SDS011;68951;53.130;18.104;2023-04-25T08:15:43;5.00;;;1.60;;
79493;SDS011;68951;53.130;18.104;2023-04-25T08:18:10;4.20;;;1.10;;
79493;SDS011;68951;53.130;18.104;2023-04-25T08:20:37;3.10;;;0.60;;
79493;SDS011;68951;53.130;18.104;2023-04-25T08:23:03;6.00;;;1.50;;
79493;SDS011;68951;53.130;18.104;2023-04-25T08:25:30;4.40;;;1.40;;
79493;SDS011;68951;53.130;18.104;2023-04-25T08:27:57;4.50;;;1.30;;
79493;SDS011;68951;53.130;18.104;2023-04-25T08:30:25;5.60;;;1.60;;
79493;SDS011;68951;53.130;18.104;2023-04-25T08:32:53;4.50;;;1.90;;
79493;SDS011;68951;53.130;18.104;2023-04-25T08:35:20;4.90;;;1.30;;
79493;SDS011;68951;53.130;18.104;2023-04-25T08:37:47;4.80;;;1.50;;
79493;SDS011;68951;53.130;18.104;2023-04-25T08:40:15;5.40;;;2.10;;
79493;SDS011;68951;53.130;18.104;2023-04-25T08:42:42;4.70;;;1.60;;
79493;SDS011;68951;53.130;18.104;2023-04-25T08:45:10;5.20;;;2.20;;
79493;SDS011;68951;53.130;18.104;2023-04-25T08:47:38;4.70;;;1.70;;
79493;SDS011;68951;53.130;18.104;2023-04-25T08:50:06;5.90;;;2.30;;
79493;SDS011;68951;53.130;18.104;2023-04-25T08:52:41;4.10;;;1.60;;
79493;SDS011;68951;53.130;18.104;2023-04-25T08:55:12;4.60;;;2.00;;
79493;SDS011;68951;53.130;18.104;2023-04-25T08:57:41;5.00;;;1.90;;
79493;SDS011;68951;53.130;18.104;2023-04-25T09:00:12;5.90;;;2.10;;
79493;SDS011;68951;53.130;18.104;2023-04-25T09:02:42;5.80;;;1.70;;
79493;SDS011;68951;53.130;18.104;2023-04-25T09:05:12;4.90;;;1.90;;
79493;SDS011;68951;53.130;18.104;2023-04-25T09:07:40;5.00;;;1.60;;
79493;SDS011;68951;53.130;18.104;2023-04-25T09:10:07;5.60;;;1.70;;
79493;SDS011;68951;53.130;18.104;2023-04-25T09:12:35;5.50;;;1.90;;
79493;SDS011;68951;53.130;18.104;2023-04-25T09:15:05;5.90;;;1.70;;
79493;SDS011;68951;53.130;18.104;2023-04-25T09:17:36;3.20;;;1.40;;
79493;SDS011;68951;53.130;18.104;2023-04-25T09:20:12;5.10;;;1.70;;
79493;SDS011;68951;53.130;18.104;2023-04-25T09:22:40;5.20;;;1.90;;
79493;SDS011;68951;53.130;18.104;2023-04-25T09:25:11;5.30;;;2.00;;
79493;SDS011;68951;53.130;18.104;2023-04-25T09:27:53;4.60;;;1.70;;
79493;SDS011;68951;53.130;18.104;2023-04-25T09:30:29;4.60;;;2.10;;
79493;SDS011;68951;53.130;18.104;2023-04-25T09:33:04;4.60;;;2.00;;
79493;SDS011;68951;53.130;18.104;2023-04-25T09:35:40;6.20;;;1.80;;
79493;SDS011;68951;53.130;18.104;2023-04-25T09:38:10;5.40;;;1.80;;
79493;SDS011;68951;53.130;18.104;2023-04-25T09:40:46;4.80;;;2.20;;
79493;SDS011;68951;53.130;18.104;2023-04-25T09:43:21;4.70;;;1.90;;
79493;SDS011;68951;53.130;18.104;2023-04-25T09:45:49;4.40;;;2.00;;
79493;SDS011;68951;53.130;18.104;2023-04-25T09:48:19;4.00;;;1.70;;
79493;SDS011;68951;53.130;18.104;2023-04-25T09:51:14;4.40;;;1.20;;
79493;SDS011;68951;53.130;18.104;2023-04-25T09:53:46;4.70;;;1.10;;
79493;SDS011;68951;53.130;18.104;2023-04-25T09:56:18;5.50;;;1.50;;
79493;SDS011;68951;53.130;18.104;2023-04-25T09:58:47;4.20;;;1.60;;
79493;SDS011;68951;53.130;18.104;2023-04-25T10:01:16;4.70;;;1.80;;
79493;SDS011;68951;53.130;18.104;2023-04-25T10:03:45;4.40;;;1.70;;
79493;SDS011;68951;53.130;18.104;2023-04-25T10:06:19;4.90;;;1.50;;
79493;SDS011;68951;53.130;18.104;2023-04-25T10:08:50;3.90;;;1.20;;
79493;SDS011;68951;53.130;18.104;2023-04-25T10:11:24;4.60;;;1.90;;
79493;SDS011;68951;53.130;18.104;2023-04-25T10:13:52;5.40;;;1.60;;
79493;SDS011;68951;53.130;18.104;2023-04-25T10:16:19;4.70;;;2.30;;
79493;SDS011;68951;53.130;18.104;2023-04-25T10:18:48;4.90;;;1.90;;
79493;SDS011;68951;53.130;18.104;2023-04-25T10:21:15;4.70;;;1.80;;
79493;SDS011;68951;53.130;18.104;2023-04-25T10:23:43;4.20;;;1.20;;
79493;SDS011;68951;53.130;18.104;2023-04-25T10:26:12;5.40;;;1.40;;
79493;SDS011;68951;53.130;18.104;2023-04-25T10:29:00;4.40;;;1.60;;
79493;SDS011;68951;53.130;18.104;2023-04-25T10:31:31;4.10;;;1.60;;
79493;SDS011;68951;53.130;18.104;2023-04-25T10:33:59;3.80;;;1.60;;
79493;SDS011;68951;53.130;18.104;2023-04-25T10:36:31;4.50;;;1.80;;
79493;SDS011;68951;53.130;18.104;2023-04-25T10:39:03;4.60;;;1.30;;
79493;SDS011;68951;53.130;18.104;2023-04-25T10:41:55;4.00;;;1.40;;
79493;SDS011;68951;53.130;18.104;2023-04-25T10:44:28;3.30;;;0.90;;
79493;SDS011;68951;53.130;18.104;2023-04-25T10:46:57;4.50;;;1.60;;
79493;SDS011;68951;53.130;18.104;2023-04-25T10:49:30;7.20;;;2.60;;
79493;SDS011;68951;53.130;18.104;2023-04-25T10:52:15;2.40;;;0.60;;
79493;SDS011;68951;53.130;18.104;2023-04-25T10:54:42;4.40;;;1.90;;
79493;SDS011;68951;53.130;18.104;2023-04-25T10:57:36;5.00;;;1.70;;
79493;SDS011;68951;53.130;18.104;2023-04-25T11:00:08;5.30;;;1.60;;
79493;SDS011;68951;53.130;18.104;2023-04-25T11:02:41;3.90;;;1.50;;
79493;SDS011;68951;53.130;18.104;2023-04-25T11:05:09;3.50;;;1.20;;
79493;SDS011;68951;53.130;18.104;2023-04-25T11:07:54;4.50;;;1.70;;
79493;SDS011;68951;53.130;18.104;2023-04-25T11:10:28;4.50;;;1.60;;
79493;SDS011;68951;53.130;18.104;2023-04-25T11:12:57;5.00;;;1.80;;
79493;SDS011;68951;53.130;18.104;2023-04-25T11:15:24;6.00;;;2.90;;
79493;SDS011;68951;53.130;18.104;2023-04-25T11:23:54;5.20;;;1.90;;
79493;SDS011;68951;53.130;18.104;2023-04-25T11:26:24;7.00;;;2.10;;
79493;SDS011;68951;53.130;18.104;2023-04-25T11:28:51;4.10;;;1.50;;
79493;SDS011;68951;53.130;18.104;2023-04-25T11:31:25;3.80;;;1.70;;
79493;SDS011;68951;53.130;18.104;2023-04-25T11:33:53;4.60;;;1.80;;
79493;SDS011;68951;53.130;18.104;2023-04-25T11:36:23;4.70;;;1.70;;
79493;SDS011;68951;53.130;18.104;2023-04-25T11:38:53;5.20;;;1.30;;
79493;SDS011;68951;53.130;18.104;2023-04-25T11:41:20;4.50;;;1.80;;
79493;SDS011;68951;53.130;18.104;2023-04-25T11:43:48;4.30;;;1.70;;
79493;SDS011;68951;53.130;18.104;2023-04-25T11:46:18;6.00;;;2.00;;
79493;SDS011;68951;53.130;18.104;2023-04-25T11:48:46;5.80;;;2.10;;
79493;SDS011;68951;53.130;18.104;2023-04-25T11:51:14;3.80;;;1.00;;
79493;SDS011;68951;53.130;18.104;2023-04-25T11:53:42;5.40;;;1.60;;
79493;SDS011;68951;53.130;18.104;2023-04-25T11:56:11;4.80;;;1.90;;
79493;SDS011;68951;53.130;18.104;2023-04-25T11:59:02;5.10;;;1.40;;
79493;SDS011;68951;53.130;18.104;2023-04-25T12:01:34;3.20;;;0.90;;
79493;SDS011;68951;53.130;18.104;2023-04-25T12:04:23;4.30;;;1.60;;
79493;SDS011;68951;53.130;18.104;2023-04-25T12:06:53;6.30;;;2.10;;
79493;SDS011;68951;53.130;18.104;2023-04-25T12:09:28;4.60;;;2.00;;
79493;SDS011;68951;53.130;18.104;2023-04-25T12:11:58;3.80;;;1.20;;
79493;SDS011;68951;53.130;18.104;2023-04-25T12:14:33;3.90;;;1.40;;
79493;SDS011;68951;53.130;18.104;2023-04-25T12:17:03;4.80;;;1.60;;
79493;SDS011;68951;53.130;18.104;2023-04-25T12:19:35;4.50;;;1.70;;
79493;SDS011;68951;53.130;18.104;2023-04-25T12:22:24;5.50;;;1.30;;
79493;SDS011;68951;53.130;18.104;2023-04-25T12:24:51;4.30;;;1.40;;
79493;SDS011;68951;53.130;18.104;2023-04-25T12:27:20;4.90;;;1.40;;
79493;SDS011;68951;53.130;18.104;2023-04-25T12:29:54;6.40;;;1.50;;
79493;SDS011;68951;53.130;18.104;2023-04-25T12:32:23;5.30;;;1.70;;
79493;SDS011;68951;53.130;18.104;2023-04-25T12:34:50;3.90;;;1.30;;
79493;SDS011;68951;53.130;18.104;2023-04-25T12:37:17;5.40;;;1.40;;
79493;SDS011;68951;53.130;18.104;2023-04-25T12:39:44;6.00;;;1.50;;
79493;SDS011;68951;53.130;18.104;2023-04-25T12:42:11;4.70;;;1.20;;
79493;SDS011;68951;53.130;18.104;2023-04-25T12:44:38;3.40;;;1.10;;
79493;SDS011;68951;53.130;18.104;2023-04-25T12:47:05;4.40;;;1.40;;
79493;SDS011;68951;53.130;18.104;2023-04-25T12:49:32;4.00;;;1.50;;
79493;SDS011;68951;53.130;18.104;2023-04-25T12:51:59;3.80;;;1.50;;
79493;SDS011;68951;53.130;18.104;2023-04-25T12:54:26;4.50;;;1.20;;
79493;SDS011;68951;53.130;18.104;2023-04-25T12:56:53;3.90;;;1.30;;
79493;SDS011;68951;53.130;18.104;2023-04-25T12:59:20;5.20;;;2.00;;
79493;SDS011;68951;53.130;18.104;2023-04-25T13:01:47;4.30;;;1.10;;
79493;SDS011;68951;53.130;18.104;2023-04-25T13:04:14;3.60;;;1.20;;
79493;SDS011;68951;53.130;18.104;2023-04-25T13:06:42;4.60;;;1.10;;
79493;SDS011;68951;53.130;18.104;2023-04-25T13:09:09;3.90;;;1.30;;
79493;SDS011;68951;53.130;18.104;2023-04-25T13:11:36;3.00;;;1.00;;
79493;SDS011;68951;53.130;18.104;2023-04-25T13:14:03;5.50;;;1.20;;
79493;SDS011;68951;53.130;18.104;2023-04-25T13:16:30;4.40;;;1.70;;
79493;SDS011;68951;53.130;18.104;2023-04-25T13:18:58;4.30;;;1.20;;
79493;SDS011;68951;53.130;18.104;2023-04-25T13:21:24;5.30;;;1.70;;
79493;SDS011;68951;53.130;18.104;2023-04-25T13:23:51;3.20;;;1.10;;
79493;SDS011;68951;53.130;18.104;2023-04-25T13:26:18;4.80;;;1.30;;
79493;SDS011;68951;53.130;18.104;2023-04-25T13:28:46;4.40;;;1.60;;
79493;SDS011;68951;53.130;18.104;2023-04-25T13:31:13;5.30;;;1.50;;
79493;SDS011;68951;53.130;18.104;2023-04-25T13:33:39;5.50;;;2.00;;
79493;SDS011;68951;53.130;18.104;2023-04-25T13:36:06;6.80;;;1.70;;
79493;SDS011;68951;53.130;18.104;2023-04-25T13:38:33;4.60;;;1.40;;
79493;SDS011;68951;53.130;18.104;2023-04-25T13:41:00;5.40;;;1.80;;
79493;SDS011;68951;53.130;18.104;2023-04-25T13:43:27;5.40;;;1.80;;
79493;SDS011;68951;53.130;18.104;2023-04-25T13:45:54;5.00;;;1.70;;
79493;SDS011;68951;53.130;18.104;2023-04-25T13:48:20;3.90;;;1.90;;
79493;SDS011;68951;53.130;18.104;2023-04-25T13:50:49;4.00;;;1.40;;
79493;SDS011;68951;53.130;18.104;2023-04-25T13:53:16;4.40;;;1.60;;
79493;SDS011;68951;53.130;18.104;2023-04-25T13:55:42;4.40;;;1.70;;
79493;SDS011;68951;53.130;18.104;2023-04-25T13:58:09;4.90;;;1.50;;
79493;SDS011;68951;53.130;18.104;2023-04-25T14:00:38;4.40;;;1.70;;
79493;SDS011;68951;53.130;18.104;2023-04-25T14:03:05;4.60;;;1.60;;
79493;SDS011;68951;53.130;18.104;2023-04-25T14:05:34;4.80;;;2.10;;
79493;SDS011;68951;53.130;18.104;2023-04-25T14:08:08;4.60;;;1.70;;
79493;SDS011;68951;53.130;18.104;2023-04-25T14:10:36;3.90;;;1.60;;
79493;SDS011;68951;53.130;18.104;2023-04-25T14:13:04;4.50;;;1.70;;
79493;SDS011;68951;53.130;18.104;2023-04-25T14:15:32;4.00;;;1.70;;
79493;SDS011;68951;53.130;18.104;2023-04-25T14:18:00;4.00;;;1.50;;
79493;SDS011;68951;53.130;18.104;2023-04-25T14:20:27;4.90;;;2.40;;
79493;SDS011;68951;53.130;18.104;2023-04-25T14:22:54;4.70;;;2.20;;
79493;SDS011;68951;53.130;18.104;2023-04-25T14:25:23;4.50;;;2.10;;
79493;SDS011;68951;53.130;18.104;2023-04-25T14:27:50;4.80;;;1.70;;
79493;SDS011;68951;53.130;18.104;2023-04-25T14:30:18;3.60;;;1.10;;
79493;SDS011;68951;53.130;18.104;2023-04-25T14:32:46;3.20;;;0.80;;
79493;SDS011;68951;53.130;18.104;2023-04-25T14:35:14;2.90;;;0.60;;
79493;SDS011;68951;53.130;18.104;2023-04-25T14:37:41;3.60;;;0.70;;
79493;SDS011;68951;53.130;18.104;2023-04-25T14:40:08;4.30;;;0.90;;
79493;SDS011;68951;53.130;18.104;2023-04-25T14:42:36;3.70;;;0.70;;
79493;SDS011;68951;53.130;18.104;2023-04-25T14:45:06;2.60;;;0.70;;
79493;SDS011;68951;53.130;18.104;2023-04-25T14:47:36;5.30;;;1.60;;
79493;SDS011;68951;53.130;18.104;2023-04-25T14:50:03;4.10;;;1.60;;
79493;SDS011;68951;53.130;18.104;2023-04-25T14:52:31;3.10;;;0.70;;
79493;SDS011;68951;53.130;18.104;2023-04-25T14:54:58;2.60;;;0.60;;
79493;SDS011;68951;53.130;18.104;2023-04-25T14:57:26;4.10;;;0.60;;
79493;SDS011;68951;53.130;18.104;2023-04-25T14:59:53;3.70;;;0.70;;
79493;SDS011;68951;53.130;18.104;2023-04-25T15:02:20;5.00;;;0.80;;